Time;durP1;ratioP1;P1;durP2;ratioP2;P2;SDS_P1;SDS_P2;PMS_P1;PMS_P2;Temp;Humidity;BMP_temperature;BMP_pressure;BME280_temperature;BME280_humidity;BME280_pressure;Samples;Min_cycle;Max_cycle;Signal;HPM_P1;HPM_P2
2023/11/16 00:34:30;;;;;;;14.17;9.43;;;3.70;99.90;;;;;;4586917;29;20605;-82
2023/11/16 01:04:39;;;;;;;13.03;9.30;;;3.30;99.90;;;;;;4586305;29;20449;-83
2023/11/16 01:30:17;;;;;;;18.10;10.40;;;3.00;99.90;;;;;;4479661;30;20577;-82
2023/11/16 02:05:56;;;;;;;18.77;12.33;;;2.70;99.90;;;;;;4530971;30;20599;-82
2023/11/16 02:35:43;;;;;;;22.13;13.60;;;2.40;99.90;;;;;;4563524;30;20247;-85
2023/11/16 03:06:36;;;;;;;18.67;12.67;;;2.30;99.90;;;;;;4568908;29;20612;-84
2023/11/16 03:57:00;;;;;;;21.43;13.33;;;2.10;99.90;;;;;;4666153;28;20847;-82
2023/11/16 04:27:37;;;;;;;25.83;15.90;;;1.50;99.90;;;;;;4671333;29;20729;-83
2023/11/16 04:57:40;;;;;;;33.57;17.57;;;1.60;99.90;;;;;;4686510;29;20579;-82
2023/11/16 05:23:24;;;;;;;36.90;19.73;;;1.70;99.90;;;;;;4496790;30;20516;-86
2023/11/16 05:49:02;;;;;;;35.70;19.17;;;0.90;99.90;;;;;;4629928;30;20399;-90
2023/11/16 06:18:45;;;;;;;41.73;22.40;;;0.20;99.90;;;;;;4711861;30;20264;-87
2023/11/16 06:39:16;;;;;;;40.47;22.17;;;1.30;99.90;;;;;;4704268;30;20518;-87
2023/11/16 07:40:27;;;;;;;69.73;25.70;;;2.50;99.90;;;;;;4577259;30;20516;-85
2023/11/16 08:10:59;;;;;;;42.57;19.80;;;2.90;99.90;;;;;;4710593;29;20224;-85
2023/11/16 08:36:16;;;;;;;39.13;18.83;;;3.40;99.90;;;;;;4606034;29;20754;-85
2023/11/16 09:01:23;;;;;;;33.63;16.77;;;3.20;99.90;;;;;;4579252;29;20740;-85
2023/11/16 09:56:47;;;;;;;26.00;14.03;;;3.60;99.90;;;;;;4546034;30;20866;-85
2023/11/16 10:17:46;;;;;;;24.03;12.47;;;4.10;99.90;;;;;;4628661;29;20235;-85
2023/11/16 10:42:49;;;;;;;21.00;12.03;;;3.90;99.90;;;;;;4659285;29;20664;-85
2023/11/16 11:03:12;;;;;;;18.87;11.27;;;4.10;99.90;;;;;;4563722;30;20481;-86
2023/11/16 11:38:14;;;;;;;17.47;11.17;;;5.00;99.90;;;;;;4594564;30;20222;-86
2023/11/16 12:03:36;;;;;;;17.83;11.13;;;4.30;99.90;;;;;;4504386;30;20219;-84
2023/11/16 12:59:23;;;;;;;17.40;10.53;;;3.70;99.90;;;;;;4501488;29;20602;-83
2023/11/16 13:20:11;;;;;;;23.03;14.50;;;3.40;99.90;;;;;;4548172;30;21232;-83
2023/11/16 13:50:51;;;;;;;32.27;19.77;;;3.30;99.90;;;;;;4540834;30;20227;-86
2023/11/16 13:55:10;;;;;;;36.30;20.03;;;3.20;99.90;;;;;;4535093;30;20244;-82
2023/11/16 14:20:38;;;;;;;54.93;29.03;;;3.00;99.90;;;;;;4542933;30;20600;-88
2023/11/16 14:51:38;;;;;;;41.10;22.07;;;2.90;99.90;;;;;;4633566;29;20643;-85
2023/11/16 15:16:51;;;;;;;44.57;22.97;;;2.90;99.90;;;;;;4767060;29;20229;-85
2023/11/16 15:37:09;;;;;;;44.87;20.60;;;2.90;99.90;;;;;;4650602;29;20225;-87
2023/11/16 16:12:33;;;;;;;22.33;14.83;;;3.20;99.90;;;;;;4709446;29;20221;-84
2023/11/16 16:37:54;;;;;;;24.07;15.17;;;3.40;99.90;;;;;;4705479;30;20387;-85
2023/11/16 17:08:24;;;;;;;29.37;17.37;;;3.60;99.90;;;;;;4674890;30;20247;-84
2023/11/16 18:19:38;;;;;;;31.23;19.40;;;4.30;99.90;;;;;;4636424;30;20254;-87
2023/11/16 18:24:16;;;;;;;29.83;19.50;;;4.30;99.90;;;;;;4625722;30;20253;-85
2023/11/16 19:04:59;;;;;;;29.03;18.87;;;4.40;99.90;;;;;;4571562;30;20559;-84
2023/11/16 19:25:04;;;;;;;29.20;17.83;;;4.10;99.90;;;;;;4630094;30;20507;-86
2023/11/16 19:50:52;;;;;;;26.13;17.13;;;4.10;99.90;;;;;;4671494;30;20278;-88
2023/11/16 20:16:18;;;;;;;24.80;16.97;;;4.30;99.90;;;;;;4703348;29;20223;-85
2023/11/16 20:20:40;;;;;;;24.97;16.20;;;4.20;99.90;;;;;;4660947;30;20795;-88
2023/11/16 20:41:33;;;;;;;27.23;18.57;;;4.20;99.90;;;;;;4716664;29;20225;-87
2023/11/16 21:01:55;;;;;;;28.90;17.03;;;4.30;99.90;;;;;;4670676;29;20251;-86
2023/11/16 21:27:11;;;;;;;27.90;18.03;;;4.50;99.90;;;;;;4658643;29;20491;-86
2023/11/16 22:32:30;;;;;;;31.23;20.70;;;5.00;99.90;;;;;;4628623;30;21323;-84
2023/11/16 22:53:22;;;;;;;28.47;16.17;;;5.00;99.90;;;;;;4653667;30;20292;-85
2023/11/16 23:18:33;;;;;;;29.07;15.50;;;4.60;99.90;;;;;;4608527;30;20793;-87
2023/11/16 23:59:21;;;;;;;29.83;16.27;;;4.70;99.90;;;;;;4786605;29;20266;-87
